sensor_id;sensor_type;location;lat;lon;timestamp;P1;durP1;ratioP1;P2;durP2;ratioP2
41952;SDS011;63613;28.200;112.870;2023-08-08T00:01:30;7.47;;;6.78;;
41952;SDS011;63613;28.200;112.870;2023-08-08T00:04:00;8.20;;;7.40;;
41952;SDS011;63613;28.200;112.870;2023-08-08T00:06:27;7.28;;;6.68;;
41952;SDS011;63613;28.200;112.870;2023-08-08T00:08:54;7.47;;;6.78;;
41952;SDS011;63613;28.200;112.870;2023-08-08T00:11:20;7.93;;;7.22;;
41952;SDS011;63613;28.200;112.870;2023-08-08T00:13:50;7.43;;;6.72;;
41952;SDS011;63613;28.200;112.870;2023-08-08T00:16:16;8.10;;;7.38;;
41952;SDS011;63613;28.200;112.870;2023-08-08T00:18:43;7.63;;;6.93;;
41952;SDS011;63613;28.200;112.870;2023-08-08T00:21:10;8.13;;;7.43;;
41952;SDS011;63613;28.200;112.870;2023-08-08T00:23:37;8.13;;;7.35;;
41952;SDS011;63613;28.200;112.870;2023-08-08T00:26:03;7.43;;;6.82;;
41952;SDS011;63613;28.200;112.870;2023-08-08T00:28:30;7.40;;;6.80;;
41952;SDS011;63613;28.200;112.870;2023-08-08T00:31:18;7.32;;;6.72;;
41952;SDS011;63613;28.200;112.870;2023-08-08T00:33:45;7.18;;;6.57;;
41952;SDS011;63613;28.200;112.870;2023-08-08T00:36:12;6.97;;;6.43;;
41952;SDS011;63613;28.200;112.870;2023-08-08T00:38:38;8.35;;;7.40;;
41952;SDS011;63613;28.200;112.870;2023-08-08T00:41:05;8.57;;;7.75;;
41952;SDS011;63613;28.200;112.870;2023-08-08T00:43:32;8.35;;;7.60;;
41952;SDS011;63613;28.200;112.870;2023-08-08T00:45:59;8.50;;;7.82;;
41952;SDS011;63613;28.200;112.870;2023-08-08T00:48:26;7.45;;;6.47;;
41952;SDS011;63613;28.200;112.870;2023-08-08T00:50:53;7.90;;;7.18;;
41952;SDS011;63613;28.200;112.870;2023-08-08T00:53:19;8.00;;;7.30;;
41952;SDS011;63613;28.200;112.870;2023-08-08T00:55:48;8.55;;;7.80;;
41952;SDS011;63613;28.200;112.870;2023-08-08T00:58:15;7.78;;;7.15;;
41952;SDS011;63613;28.200;112.870;2023-08-08T01:00:43;7.88;;;7.18;;
41952;SDS011;63613;28.200;112.870;2023-08-08T01:03:09;8.68;;;7.97;;
41952;SDS011;63613;28.200;112.870;2023-08-08T01:05:38;7.82;;;7.22;;
41952;SDS011;63613;28.200;112.870;2023-08-08T01:10:39;8.30;;;7.60;;
41952;SDS011;63613;28.200;112.870;2023-08-08T01:13:25;7.95;;;7.20;;
41952;SDS011;63613;28.200;112.870;2023-08-08T01:15:54;8.27;;;7.53;;
41952;SDS011;63613;28.200;112.870;2023-08-08T01:18:23;7.50;;;6.85;;
41952;SDS011;63613;28.200;112.870;2023-08-08T01:20:52;7.95;;;7.25;;
41952;SDS011;63613;28.200;112.870;2023-08-08T01:23:29;7.45;;;6.85;;
41952;SDS011;63613;28.200;112.870;2023-08-08T01:25:59;7.45;;;6.85;;
41952;SDS011;63613;28.200;112.870;2023-08-08T01:28:27;6.75;;;6.15;;
41952;SDS011;63613;28.200;112.870;2023-08-08T01:30:54;8.05;;;7.35;;
41952;SDS011;63613;28.200;112.870;2023-08-08T01:33:20;7.93;;;7.20;;
41952;SDS011;63613;28.200;112.870;2023-08-08T01:35:53;7.38;;;6.68;;
41952;SDS011;63613;28.200;112.870;2023-08-08T01:38:28;8.35;;;7.65;;
41952;SDS011;63613;28.200;112.870;2023-08-08T01:41:04;7.95;;;7.25;;
41952;SDS011;63613;28.200;112.870;2023-08-08T01:43:33;8.88;;;7.72;;
41952;SDS011;63613;28.200;112.870;2023-08-08T01:46:03;8.13;;;7.32;;
41952;SDS011;63613;28.200;112.870;2023-08-08T01:48:30;8.40;;;7.53;;
41952;SDS011;63613;28.200;112.870;2023-08-08T01:50:58;7.55;;;6.75;;
41952;SDS011;63613;28.200;112.870;2023-08-08T01:53:25;8.23;;;7.35;;
41952;SDS011;63613;28.200;112.870;2023-08-08T01:55:52;7.43;;;6.82;;
41952;SDS011;63613;28.200;112.870;2023-08-08T01:58:19;7.38;;;6.68;;
41952;SDS011;63613;28.200;112.870;2023-08-08T02:00:45;8.13;;;7.32;;
41952;SDS011;63613;28.200;112.870;2023-08-08T02:03:14;7.50;;;6.80;;
41952;SDS011;63613;28.200;112.870;2023-08-08T02:05:40;8.02;;;7.32;;
41952;SDS011;63613;28.200;112.870;2023-08-08T02:08:07;7.55;;;6.85;;
41952;SDS011;63613;28.200;112.870;2023-08-08T02:10:35;7.93;;;7.13;;
41952;SDS011;63613;28.200;112.870;2023-08-08T02:13:05;7.55;;;6.95;;
41952;SDS011;63613;28.200;112.870;2023-08-08T02:15:32;8.25;;;7.10;;
41952;SDS011;63613;28.200;112.870;2023-08-08T02:17:59;7.20;;;6.50;;
41952;SDS011;63613;28.200;112.870;2023-08-08T02:20:26;8.27;;;7.10;;
41952;SDS011;63613;28.200;112.870;2023-08-08T02:22:53;7.53;;;6.80;;
41952;SDS011;63613;28.200;112.870;2023-08-08T02:25:20;8.02;;;7.32;;
41952;SDS011;63613;28.200;112.870;2023-08-08T02:27:46;8.68;;;6.65;;
41952;SDS011;63613;28.200;112.870;2023-08-08T02:30:15;7.55;;;6.80;;
41952;SDS011;63613;28.200;112.870;2023-08-08T02:32:41;6.85;;;6.25;;
41952;SDS011;63613;28.200;112.870;2023-08-08T02:35:08;7.15;;;6.50;;
41952;SDS011;63613;28.200;112.870;2023-08-08T02:37:35;7.18;;;6.47;;
41952;SDS011;63613;28.200;112.870;2023-08-08T02:40:02;6.57;;;6.00;;
41952;SDS011;63613;28.200;112.870;2023-08-08T02:42:30;6.90;;;6.30;;
41952;SDS011;63613;28.200;112.870;2023-08-08T02:44:59;6.63;;;6.03;;
41952;SDS011;63613;28.200;112.870;2023-08-08T02:47:26;8.40;;;7.60;;
41952;SDS011;63613;28.200;112.870;2023-08-08T02:49:53;6.63;;;5.97;;
41952;SDS011;63613;28.200;112.870;2023-08-08T02:52:20;7.32;;;6.68;;
41952;SDS011;63613;28.200;112.870;2023-08-08T02:54:47;7.75;;;7.05;;
41952;SDS011;63613;28.200;112.870;2023-08-08T02:57:13;7.40;;;6.70;;
41952;SDS011;63613;28.200;112.870;2023-08-08T02:59:40;7.35;;;6.70;;
41952;SDS011;63613;28.200;112.870;2023-08-08T03:02:07;9.15;;;8.25;;
41952;SDS011;63613;28.200;112.870;2023-08-08T03:04:34;8.25;;;7.55;;
41952;SDS011;63613;28.200;112.870;2023-08-08T03:07:05;7.25;;;6.65;;
41952;SDS011;63613;28.200;112.870;2023-08-08T03:09:32;7.70;;;6.97;;
41952;SDS011;63613;28.200;112.870;2023-08-08T03:11:59;7.63;;;6.93;;
41952;SDS011;63613;28.200;112.870;2023-08-08T03:14:28;7.45;;;6.85;;
41952;SDS011;63613;28.200;112.870;2023-08-08T03:16:55;7.88;;;7.20;;
41952;SDS011;63613;28.200;112.870;2023-08-08T03:19:21;7.90;;;7.10;;
41952;SDS011;63613;28.200;112.870;2023-08-08T03:21:48;7.97;;;7.18;;
41952;SDS011;63613;28.200;112.870;2023-08-08T03:24:15;8.13;;;7.32;;
41952;SDS011;63613;28.200;112.870;2023-08-08T03:26:42;8.02;;;7.35;;
41952;SDS011;63613;28.200;112.870;2023-08-08T03:29:28;8.10;;;7.40;;
41952;SDS011;63613;28.200;112.870;2023-08-08T03:31:56;7.82;;;7.13;;
41952;SDS011;63613;28.200;112.870;2023-08-08T03:34:26;8.93;;;8.23;;
41952;SDS011;63613;28.200;112.870;2023-08-08T03:36:52;8.48;;;7.68;;
41952;SDS011;63613;28.200;112.870;2023-08-08T03:39:19;8.75;;;7.95;;
41952;SDS011;63613;28.200;112.870;2023-08-08T03:41:50;9.57;;;8.57;;
41952;SDS011;63613;28.200;112.870;2023-08-08T03:44:17;10.15;;;9.13;;
41952;SDS011;63613;28.200;112.870;2023-08-08T03:46:43;8.90;;;8.10;;
41952;SDS011;63613;28.200;112.870;2023-08-08T03:49:10;9.55;;;8.55;;
41952;SDS011;63613;28.200;112.870;2023-08-08T03:51:37;9.60;;;8.75;;
41952;SDS011;63613;28.200;112.870;2023-08-08T03:54:04;11.00;;;9.98;;
41952;SDS011;63613;28.200;112.870;2023-08-08T03:56:30;10.75;;;9.60;;
41952;SDS011;63613;28.200;112.870;2023-08-08T03:59:17;10.13;;;8.95;;
41952;SDS011;63613;28.200;112.870;2023-08-08T04:01:47;10.98;;;8.65;;
41952;SDS011;63613;28.200;112.870;2023-08-08T04:04:14;10.40;;;9.38;;
41952;SDS011;63613;28.200;112.870;2023-08-08T04:06:41;12.10;;;10.65;;
41952;SDS011;63613;28.200;112.870;2023-08-08T04:09:28;12.95;;;11.57;;
41952;SDS011;63613;28.200;112.870;2023-08-08T04:11:55;13.55;;;11.18;;
41952;SDS011;63613;28.200;112.870;2023-08-08T04:14:24;11.75;;;10.32;;
41952;SDS011;63613;28.200;112.870;2023-08-08T04:16:50;13.23;;;11.80;;
41952;SDS011;63613;28.200;112.870;2023-08-08T04:19:21;12.38;;;11.18;;
41952;SDS011;63613;28.200;112.870;2023-08-08T04:21:49;12.18;;;10.82;;
41952;SDS011;63613;28.200;112.870;2023-08-08T04:24:17;11.80;;;10.60;;
41952;SDS011;63613;28.200;112.870;2023-08-08T04:26:44;13.80;;;10.98;;
41952;SDS011;63613;28.200;112.870;2023-08-08T04:29:11;14.57;;;11.48;;
41952;SDS011;63613;28.200;112.870;2023-08-08T04:31:39;12.13;;;10.65;;
41952;SDS011;63613;28.200;112.870;2023-08-08T04:34:06;12.43;;;10.70;;
41952;SDS011;63613;28.200;112.870;2023-08-08T04:36:32;13.68;;;11.27;;
41952;SDS011;63613;28.200;112.870;2023-08-08T04:38:59;13.55;;;11.43;;
41952;SDS011;63613;28.200;112.870;2023-08-08T04:41:26;13.10;;;11.05;;
41952;SDS011;63613;28.200;112.870;2023-08-08T04:43:53;14.02;;;11.63;;
41952;SDS011;63613;28.200;112.870;2023-08-08T04:46:20;13.32;;;11.65;;
41952;SDS011;63613;28.200;112.870;2023-08-08T04:48:47;16.00;;;12.45;;
41952;SDS011;63613;28.200;112.870;2023-08-08T04:51:13;16.20;;;13.00;;
41952;SDS011;63613;28.200;112.870;2023-08-08T04:53:40;17.48;;;14.20;;
41952;SDS011;63613;28.200;112.870;2023-08-08T04:56:08;17.83;;;14.68;;
41952;SDS011;63613;28.200;112.870;2023-08-08T04:58:36;18.17;;;14.02;;
41952;SDS011;63613;28.200;112.870;2023-08-08T05:01:04;20.85;;;14.85;;
41952;SDS011;63613;28.200;112.870;2023-08-08T05:03:34;17.45;;;13.40;;
41952;SDS011;63613;28.200;112.870;2023-08-08T05:06:02;19.58;;;14.63;;
41952;SDS011;63613;28.200;112.870;2023-08-08T05:08:29;19.58;;;14.20;;
41952;SDS011;63613;28.200;112.870;2023-08-08T05:10:56;19.10;;;15.05;;
41952;SDS011;63613;28.200;112.870;2023-08-08T05:13:23;21.50;;;14.90;;
41952;SDS011;63613;28.200;112.870;2023-08-08T05:15:50;21.65;;;16.83;;
41952;SDS011;63613;28.200;112.870;2023-08-08T05:18:19;21.67;;;16.80;;
41952;SDS011;63613;28.200;112.870;2023-08-08T05:20:46;21.00;;;16.20;;
41952;SDS011;63613;28.200;112.870;2023-08-08T05:23:13;19.35;;;15.77;;
41952;SDS011;63613;28.200;112.870;2023-08-08T05:25:41;21.83;;;16.02;;
41952;SDS011;63613;28.200;112.870;2023-08-08T05:28:08;21.05;;;16.08;;
41952;SDS011;63613;28.200;112.870;2023-08-08T05:30:35;20.58;;;16.63;;
41952;SDS011;63613;28.200;112.870;2023-08-08T05:33:05;20.58;;;16.50;;
41952;SDS011;63613;28.200;112.870;2023-08-08T05:35:32;21.60;;;17.98;;
41952;SDS011;63613;28.200;112.870;2023-08-08T05:38:00;21.70;;;18.52;;
41952;SDS011;63613;28.200;112.870;2023-08-08T05:40:27;24.02;;;19.75;;
41952;SDS011;63613;28.200;112.870;2023-08-08T05:42:54;24.08;;;18.23;;
41952;SDS011;63613;28.200;112.870;2023-08-08T05:45:21;20.95;;;18.10;;
41952;SDS011;63613;28.200;112.870;2023-08-08T05:48:08;20.15;;;17.60;;
41952;SDS011;63613;28.200;112.870;2023-08-08T05:50:40;20.83;;;17.70;;
41952;SDS011;63613;28.200;112.870;2023-08-08T05:53:07;20.02;;;17.58;;
41952;SDS011;63613;28.200;112.870;2023-08-08T05:55:34;22.55;;;17.85;;
41952;SDS011;63613;28.200;112.870;2023-08-08T05:58:02;21.65;;;17.77;;
41952;SDS011;63613;28.200;112.870;2023-08-08T06:00:29;20.02;;;16.73;;
41952;SDS011;63613;28.200;112.870;2023-08-08T06:02:57;19.02;;;16.60;;
41952;SDS011;63613;28.200;112.870;2023-08-08T06:05:24;18.80;;;16.38;;
41952;SDS011;63613;28.200;112.870;2023-08-08T06:07:50;20.35;;;16.75;;
41952;SDS011;63613;28.200;112.870;2023-08-08T06:10:21;18.98;;;16.00;;
41952;SDS011;63613;28.200;112.870;2023-08-08T06:12:48;21.15;;;16.35;;
41952;SDS011;63613;28.200;112.870;2023-08-08T06:15:15;18.38;;;15.23;;
41952;SDS011;63613;28.200;112.870;2023-08-08T06:17:48;19.65;;;15.55;;
41952;SDS011;63613;28.200;112.870;2023-08-08T06:20:20;19.67;;;15.55;;
41952;SDS011;63613;28.200;112.870;2023-08-08T06:22:47;17.95;;;15.23;;
41952;SDS011;63613;28.200;112.870;2023-08-08T06:25:14;20.90;;;16.00;;
41952;SDS011;63613;28.200;112.870;2023-08-08T06:27:41;22.67;;;16.48;;
41952;SDS011;63613;28.200;112.870;2023-08-08T06:30:08;20.42;;;16.02;;
41952;SDS011;63613;28.200;112.870;2023-08-08T06:32:58;22.90;;;15.75;;
41952;SDS011;63613;28.200;112.870;2023-08-08T06:35:26;20.58;;;15.95;;
41952;SDS011;63613;28.200;112.870;2023-08-08T06:37:53;17.38;;;15.52;;
41952;SDS011;63613;28.200;112.870;2023-08-08T06:40:23;21.65;;;15.88;;
41952;SDS011;63613;28.200;112.870;2023-08-08T06:42:50;17.85;;;13.60;;
41952;SDS011;63613;28.200;112.870;2023-08-08T06:45:17;17.27;;;14.70;;
41952;SDS011;63613;28.200;112.870;2023-08-08T06:47:46;18.42;;;15.05;;
41952;SDS011;63613;28.200;112.870;2023-08-08T06:50:14;16.35;;;13.70;;
41952;SDS011;63613;28.200;112.870;2023-08-08T06:52:40;21.58;;;14.82;;
41952;SDS011;63613;28.200;112.870;2023-08-08T06:55:11;17.35;;;14.25;;
41952;SDS011;63613;28.200;112.870;2023-08-08T06:57:38;17.02;;;14.68;;
41952;SDS011;63613;28.200;112.870;2023-08-08T07:00:05;18.10;;;14.05;;
41952;SDS011;63613;28.200;112.870;2023-08-08T07:02:33;17.52;;;14.25;;
41952;SDS011;63613;28.200;112.870;2023-08-08T07:05:02;15.63;;;13.77;;
41952;SDS011;63613;28.200;112.870;2023-08-08T07:07:32;16.38;;;13.80;;
41952;SDS011;63613;28.200;112.870;2023-08-08T07:10:19;16.98;;;13.05;;
41952;SDS011;63613;28.200;112.870;2023-08-08T07:12:48;16.30;;;14.40;;
41952;SDS011;63613;28.200;112.870;2023-08-08T07:15:15;16.23;;;14.38;;
41952;SDS011;63613;28.200;112.870;2023-08-08T07:17:45;16.15;;;14.45;;
41952;SDS011;63613;28.200;112.870;2023-08-08T07:20:11;17.42;;;14.07;;
41952;SDS011;63613;28.200;112.870;2023-08-08T07:22:39;15.32;;;12.90;;
41952;SDS011;63613;28.200;112.870;2023-08-08T07:25:06;15.98;;;12.85;;
41952;SDS011;63613;28.200;112.870;2023-08-08T07:27:33;15.07;;;13.13;;
41952;SDS011;63613;28.200;112.870;2023-08-08T07:30:00;16.20;;;13.52;;
41952;SDS011;63613;28.200;112.870;2023-08-08T07:32:28;15.07;;;13.50;;
41952;SDS011;63613;28.200;112.870;2023-08-08T07:34:55;14.85;;;13.25;;
41952;SDS011;63613;28.200;112.870;2023-08-08T07:37:21;14.73;;;13.02;;
41952;SDS011;63613;28.200;112.870;2023-08-08T07:39:51;15.18;;;13.55;;
41952;SDS011;63613;28.200;112.870;2023-08-08T07:42:20;15.23;;;13.63;;
41952;SDS011;63613;28.200;112.870;2023-08-08T07:44:47;14.48;;;12.98;;
41952;SDS011;63613;28.200;112.870;2023-08-08T07:47:13;16.05;;;13.60;;
41952;SDS011;63613;28.200;112.870;2023-08-08T07:49:40;15.02;;;13.07;;
41952;SDS011;63613;28.200;112.870;2023-08-08T07:52:10;13.63;;;12.32;;
41952;SDS011;63613;28.200;112.870;2023-08-08T07:54:37;14.23;;;12.85;;
41952;SDS011;63613;28.200;112.870;2023-08-08T07:57:03;14.18;;;12.77;;
41952;SDS011;63613;28.200;112.870;2023-08-08T07:59:30;14.45;;;12.93;;
41952;SDS011;63613;28.200;112.870;2023-08-08T08:01:57;14.15;;;12.85;;
41952;SDS011;63613;28.200;112.870;2023-08-08T08:04:25;15.88;;;14.30;;
41952;SDS011;63613;28.200;112.870;2023-08-08T08:06:56;13.82;;;12.43;;
41952;SDS011;63613;28.200;112.870;2023-08-08T08:09:25;14.90;;;13.27;;
41952;SDS011;63613;28.200;112.870;2023-08-08T08:11:52;14.20;;;12.70;;
41952;SDS011;63613;28.200;112.870;2023-08-08T08:14:39;14.38;;;12.98;;
41952;SDS011;63613;28.200;112.870;2023-08-08T08:17:05;14.75;;;13.32;;
41952;SDS011;63613;28.200;112.870;2023-08-08T08:19:34;14.90;;;13.30;;
41952;SDS011;63613;28.200;112.870;2023-08-08T08:22:04;14.18;;;12.65;;
41952;SDS011;63613;28.200;112.870;2023-08-08T08:24:31;13.40;;;12.00;;
41952;SDS011;63613;28.200;112.870;2023-08-08T08:26:58;14.02;;;12.52;;
41952;SDS011;63613;28.200;112.870;2023-08-08T08:29:25;14.50;;;12.88;;
41952;SDS011;63613;28.200;112.870;2023-08-08T08:31:52;14.30;;;12.80;;
41952;SDS011;63613;28.200;112.870;2023-08-08T08:34:19;14.02;;;12.63;;
41952;SDS011;63613;28.200;112.870;2023-08-08T08:36:46;14.02;;;12.63;;
41952;SDS011;63613;28.200;112.870;2023-08-08T08:39:13;14.23;;;12.73;;
41952;SDS011;63613;28.200;112.870;2023-08-08T08:41:40;13.82;;;12.52;;
41952;SDS011;63613;28.200;112.870;2023-08-08T08:44:07;13.70;;;12.40;;
41952;SDS011;63613;28.200;112.870;2023-08-08T08:46:35;13.35;;;12.05;;
41952;SDS011;63613;28.200;112.870;2023-08-08T08:49:03;14.10;;;12.77;;
41952;SDS011;63613;28.200;112.870;2023-08-08T08:51:36;14.45;;;12.88;;
41952;SDS011;63613;28.200;112.870;2023-08-08T08:54:03;13.13;;;11.93;;
41952;SDS011;63613;28.200;112.870;2023-08-08T08:56:30;13.85;;;12.50;;
41952;SDS011;63613;28.200;112.870;2023-08-08T08:59:00;13.30;;;12.07;;
41952;SDS011;63613;28.200;112.870;2023-08-08T09:01:27;14.38;;;13.07;;
41952;SDS011;63613;28.200;112.870;2023-08-08T09:03:55;14.77;;;13.35;;
41952;SDS011;63613;28.200;112.870;2023-08-08T09:06:23;14.52;;;13.05;;
41952;SDS011;63613;28.200;112.870;2023-08-08T09:08:51;12.98;;;11.68;;
41952;SDS011;63613;28.200;112.870;2023-08-08T09:11:18;12.90;;;11.60;;
41952;SDS011;63613;28.200;112.870;2023-08-08T09:13:44;13.50;;;12.23;;
41952;SDS011;63613;28.200;112.870;2023-08-08T09:16:16;14.85;;;13.43;;
41952;SDS011;63613;28.200;112.870;2023-08-08T09:18:42;14.00;;;12.70;;
41952;SDS011;63613;28.200;112.870;2023-08-08T09:21:12;13.55;;;12.25;;
41952;SDS011;63613;28.200;112.870;2023-08-08T09:23:41;12.98;;;11.77;;
41952;SDS011;63613;28.200;112.870;2023-08-08T09:26:09;13.68;;;12.38;;
41952;SDS011;63613;28.200;112.870;2023-08-08T09:28:39;12.85;;;11.63;;
41952;SDS011;63613;28.200;112.870;2023-08-08T09:31:06;13.23;;;11.93;;
41952;SDS011;63613;28.200;112.870;2023-08-08T09:33:34;13.18;;;12.05;;
41952;SDS011;63613;28.200;112.870;2023-08-08T09:36:07;13.45;;;12.20;;
41952;SDS011;63613;28.200;112.870;2023-08-08T09:38:45;12.45;;;11.25;;
41952;SDS011;63613;28.200;112.870;2023-08-08T09:41:12;13.88;;;12.48;;
41952;SDS011;63613;28.200;112.870;2023-08-08T09:43:42;13.50;;;12.10;;
41952;SDS011;63613;28.200;112.870;2023-08-08T09:46:15;12.35;;;11.20;;
41952;SDS011;63613;28.200;112.870;2023-08-08T09:48:45;12.38;;;11.10;;
41952;SDS011;63613;28.200;112.870;2023-08-08T09:51:13;13.20;;;11.90;;
41952;SDS011;63613;28.200;112.870;2023-08-08T09:53:40;12.10;;;10.93;;
41952;SDS011;63613;28.200;112.870;2023-08-08T09:56:08;12.40;;;11.30;;
41952;SDS011;63613;28.200;112.870;2023-08-08T09:58:35;11.95;;;10.85;;
41952;SDS011;63613;28.200;112.870;2023-08-08T10:01:04;11.80;;;10.70;;
41952;SDS011;63613;28.200;112.870;2023-08-08T10:03:32;11.77;;;10.68;;
41952;SDS011;63613;28.200;112.870;2023-08-08T10:06:20;11.95;;;10.85;;
41952;SDS011;63613;28.200;112.870;2023-08-08T10:08:50;13.10;;;11.85;;
41952;SDS011;63613;28.200;112.870;2023-08-08T10:11:17;12.95;;;11.68;;
41952;SDS011;63613;28.200;112.870;2023-08-08T10:13:48;13.07;;;11.68;;
41952;SDS011;63613;28.200;112.870;2023-08-08T10:16:16;12.70;;;11.50;;
41952;SDS011;63613;28.200;112.870;2023-08-08T10:18:44;12.52;;;11.23;;
41952;SDS011;63613;28.200;112.870;2023-08-08T10:21:12;13.23;;;11.77;;
41952;SDS011;63613;28.200;112.870;2023-08-08T10:23:41;16.70;;;12.90;;
41952;SDS011;63613;28.200;112.870;2023-08-08T10:26:22;16.27;;;12.73;;
41952;SDS011;63613;28.200;112.870;2023-08-08T10:28:56;16.95;;;12.32;;
41952;SDS011;63613;28.200;112.870;2023-08-08T10:31:24;16.00;;;12.85;;
41952;SDS011;63613;28.200;112.870;2023-08-08T10:34:00;18.70;;;14.45;;
41952;SDS011;63613;28.200;112.870;2023-08-08T10:36:49;16.98;;;14.02;;
41952;SDS011;63613;28.200;112.870;2023-08-08T10:39:20;20.50;;;15.73;;
41952;SDS011;63613;28.200;112.870;2023-08-08T10:41:48;22.52;;;16.77;;
41952;SDS011;63613;28.200;112.870;2023-08-08T10:44:25;26.27;;;17.88;;
41952;SDS011;63613;28.200;112.870;2023-08-08T10:46:52;31.88;;;19.85;;
41952;SDS011;63613;28.200;112.870;2023-08-08T10:49:20;34.10;;;21.58;;
41952;SDS011;63613;28.200;112.870;2023-08-08T10:51:48;43.65;;;24.65;;
41952;SDS011;63613;28.200;112.870;2023-08-08T10:54:24;42.17;;;25.35;;
41952;SDS011;63613;28.200;112.870;2023-08-08T10:56:56;47.17;;;27.27;;
41952;SDS011;63613;28.200;112.870;2023-08-08T10:59:35;45.05;;;28.42;;
41952;SDS011;63613;28.200;112.870;2023-08-08T11:02:04;47.88;;;28.52;;
41952;SDS011;63613;28.200;112.870;2023-08-08T11:04:31;47.92;;;28.63;;
41952;SDS011;63613;28.200;112.870;2023-08-08T11:06:58;53.97;;;30.38;;
41952;SDS011;63613;28.200;112.870;2023-08-08T11:09:27;55.00;;;30.92;;
41952;SDS011;63613;28.200;112.870;2023-08-08T11:11:55;56.28;;;30.60;;
41952;SDS011;63613;28.200;112.870;2023-08-08T11:14:22;55.10;;;31.10;;
41952;SDS011;63613;28.200;112.870;2023-08-08T11:17:09;53.50;;;30.75;;
41952;SDS011;63613;28.200;112.870;2023-08-08T11:19:40;54.53;;;31.30;;
41952;SDS011;63613;28.200;112.870;2023-08-08T11:22:10;55.20;;;30.92;;
41952;SDS011;63613;28.200;112.870;2023-08-08T11:24:41;53.35;;;31.15;;
41952;SDS011;63613;28.200;112.870;2023-08-08T11:27:08;52.75;;;32.30;;
41952;SDS011;63613;28.200;112.870;2023-08-08T11:29:35;58.15;;;29.92;;
41952;SDS011;63613;28.200;112.870;2023-08-08T11:32:04;57.33;;;31.73;;
41952;SDS011;63613;28.200;112.870;2023-08-08T11:34:34;52.00;;;31.25;;
41952;SDS011;63613;28.200;112.870;2023-08-08T11:37:01;53.35;;;31.17;;
41952;SDS011;63613;28.200;112.870;2023-08-08T11:39:32;55.08;;;30.38;;
41952;SDS011;63613;28.200;112.870;2023-08-08T11:42:02;47.53;;;29.20;;
41952;SDS011;63613;28.200;112.870;2023-08-08T11:44:30;52.05;;;31.23;;
41952;SDS011;63613;28.200;112.870;2023-08-08T11:47:01;50.20;;;31.10;;
41952;SDS011;63613;28.200;112.870;2023-08-08T11:49:28;54.58;;;31.33;;
41952;SDS011;63613;28.200;112.870;2023-08-08T11:51:57;50.33;;;30.70;;
41952;SDS011;63613;28.200;112.870;2023-08-08T11:54:28;49.10;;;29.63;;
41952;SDS011;63613;28.200;112.870;2023-08-08T11:56:56;45.42;;;30.08;;
41952;SDS011;63613;28.200;112.870;2023-08-08T11:59:25;48.42;;;28.50;;
41952;SDS011;63613;28.200;112.870;2023-08-08T12:01:52;47.85;;;28.98;;
41952;SDS011;63613;28.200;112.870;2023-08-08T12:04:39;49.55;;;29.10;;
41952;SDS011;63613;28.200;112.870;2023-08-08T12:07:11;41.22;;;27.50;;
41952;SDS011;63613;28.200;112.870;2023-08-08T12:09:38;46.50;;;28.73;;
41952;SDS011;63613;28.200;112.870;2023-08-08T12:12:08;42.72;;;27.27;;
41952;SDS011;63613;28.200;112.870;2023-08-08T12:14:38;43.42;;;26.42;;
41952;SDS011;63613;28.200;112.870;2023-08-08T12:17:05;45.67;;;28.10;;
41952;SDS011;63613;28.200;112.870;2023-08-08T12:19:32;42.58;;;26.95;;
41952;SDS011;63613;28.200;112.870;2023-08-08T12:22:00;43.97;;;27.77;;
41952;SDS011;63613;28.200;112.870;2023-08-08T12:24:27;43.42;;;27.77;;
41952;SDS011;63613;28.200;112.870;2023-08-08T12:26:54;40.40;;;26.85;;
41952;SDS011;63613;28.200;112.870;2023-08-08T12:29:21;41.40;;;26.23;;
41952;SDS011;63613;28.200;112.870;2023-08-08T12:31:47;40.30;;;25.10;;
41952;SDS011;63613;28.200;112.870;2023-08-08T12:34:14;39.88;;;24.98;;
41952;SDS011;63613;28.200;112.870;2023-08-08T12:36:41;36.95;;;24.77;;
41952;SDS011;63613;28.200;112.870;2023-08-08T12:39:28;37.88;;;24.30;;
41952;SDS011;63613;28.200;112.870;2023-08-08T12:41:57;38.17;;;25.45;;
41952;SDS011;63613;28.200;112.870;2023-08-08T12:44:26;35.42;;;25.10;;
41952;SDS011;63613;28.200;112.870;2023-08-08T12:46:53;38.72;;;26.33;;
41952;SDS011;63613;28.200;112.870;2023-08-08T12:49:21;39.20;;;25.35;;
41952;SDS011;63613;28.200;112.870;2023-08-08T12:51:49;39.00;;;24.13;;
41952;SDS011;63613;28.200;112.870;2023-08-08T12:54:21;34.72;;;23.35;;
41952;SDS011;63613;28.200;112.870;2023-08-08T12:57:08;36.15;;;23.75;;
41952;SDS011;63613;28.200;112.870;2023-08-08T12:59:35;36.88;;;24.63;;
41952;SDS011;63613;28.200;112.870;2023-08-08T13:04:49;36.67;;;23.63;;
41952;SDS011;63613;28.200;112.870;2023-08-08T13:07:18;35.97;;;22.83;;
41952;SDS011;63613;28.200;112.870;2023-08-08T13:09:44;34.78;;;23.55;;
41952;SDS011;63613;28.200;112.870;2023-08-08T13:12:11;32.33;;;21.23;;
41952;SDS011;63613;28.200;112.870;2023-08-08T13:14:38;30.48;;;21.95;;
41952;SDS011;63613;28.200;112.870;2023-08-08T13:17:05;29.77;;;21.63;;
41952;SDS011;63613;28.200;112.870;2023-08-08T13:19:32;32.05;;;22.42;;
41952;SDS011;63613;28.200;112.870;2023-08-08T13:21:58;33.20;;;23.08;;
41952;SDS011;63613;28.200;112.870;2023-08-08T13:24:25;34.53;;;22.38;;
41952;SDS011;63613;28.200;112.870;2023-08-08T13:26:52;33.15;;;21.77;;
41952;SDS011;63613;28.200;112.870;2023-08-08T13:29:20;29.30;;;22.25;;
41952;SDS011;63613;28.200;112.870;2023-08-08T13:31:47;26.65;;;20.80;;
41952;SDS011;63613;28.200;112.870;2023-08-08T13:34:14;29.48;;;21.33;;
41952;SDS011;63613;28.200;112.870;2023-08-08T13:36:41;28.02;;;20.45;;
41952;SDS011;63613;28.200;112.870;2023-08-08T13:39:28;30.00;;;21.42;;
41952;SDS011;63613;28.200;112.870;2023-08-08T13:41:55;28.40;;;21.08;;
41952;SDS011;63613;28.200;112.870;2023-08-08T13:44:23;25.50;;;18.90;;
41952;SDS011;63613;28.200;112.870;2023-08-08T13:46:50;26.75;;;19.55;;
41952;SDS011;63613;28.200;112.870;2023-08-08T13:49:21;27.20;;;20.27;;
41952;SDS011;63613;28.200;112.870;2023-08-08T13:51:54;27.65;;;19.80;;
41952;SDS011;63613;28.200;112.870;2023-08-08T13:54:21;28.95;;;20.65;;
41952;SDS011;63613;28.200;112.870;2023-08-08T13:57:07;27.95;;;20.92;;
41952;SDS011;63613;28.200;112.870;2023-08-08T13:59:35;27.08;;;20.38;;
41952;SDS011;63613;28.200;112.870;2023-08-08T14:02:05;25.25;;;18.35;;
41952;SDS011;63613;28.200;112.870;2023-08-08T14:04:35;24.30;;;18.27;;
41952;SDS011;63613;28.200;112.870;2023-08-08T14:07:01;25.40;;;18.58;;
41952;SDS011;63613;28.200;112.870;2023-08-08T14:09:29;27.60;;;19.20;;
41952;SDS011;63613;28.200;112.870;2023-08-08T14:11:56;23.90;;;17.75;;
41952;SDS011;63613;28.200;112.870;2023-08-08T14:14:24;25.60;;;18.52;;
41952;SDS011;63613;28.200;112.870;2023-08-08T14:16:51;23.67;;;18.52;;
41952;SDS011;63613;28.200;112.870;2023-08-08T14:19:19;23.65;;;18.15;;